Big Bear Station Historical Data
Daily Summary for June 3, 2019 Units:  English    Metric   Both
Next Day »
Daily Weekly Monthly Yearly Custom
  High: Low: Average:
Temperature: 71.2 °F 38.1 °F 54.2 °F
Dew Point: 47.3 °F 36.7 °F 41.4 °F
Humidity: 96% 31% 67%
Wind Speed: 6.8mph 0mph 1mph
Wind Gust: -999mph - -
Wind- - WSW
Pressure: 23.51 in 23.44 in -
Precipitation: 0 in    
Historical Graphs
 
 
Tabular Data for June 3, 2019
Time Temperature Dew Point Pressure Wind Wind Speed Wind Gust Humidity Rainfall Rate (Hourly)
00:07 44.4 °F 40.5 °F 23.45 in Calm   -999 mph 86% 0.00 in
00:23 43.9 °F 40.3 °F 23.45 in Calm   -999 mph 87% 0.00 in
00:38 43.3 °F 39.7 °F 23.45 in Calm   -999 mph 87% 0.00 in
00:53 43 °F 39.4 °F 23.45 in Calm   -999 mph 87% 0.00 in
01:08 42.4 °F 39.1 °F 23.45 in Calm   -999 mph 88% 0.00 in
01:23 41.9 °F 38.6 °F 23.45 in Calm   -999 mph 88% 0.00 in
01:39 41.7 °F 38.7 °F 23.45 in Calm   -999 mph 89% 0.00 in
01:54 41.4 °F 38.4 °F 23.44 in Calm   -999 mph 89% 0.00 in
02:09 41.2 °F 38.5 °F 23.44 in Calm   -999 mph 90% 0.00 in
02:24 40.6 °F 37.9 °F 23.44 in Calm   -999 mph 90% 0.00 in
02:39 40.5 °F 38.1 °F 23.44 in Calm   -999 mph 91% 0.00 in
02:55 40.3 °F 38.2 °F 23.44 in Calm   -999 mph 92% 0.00 in
03:10 39.9 °F 38.3 °F 23.44 in Calm   -999 mph 94% 0.00 in
03:25 39.7 °F 38.1 °F 23.44 in Calm   -999 mph 94% 0.00 in
03:40 39.6 °F 37.7 °F 23.44 in Calm   -999 mph 93% 0.00 in
03:56 39.2 °F 37.3 °F 23.44 in Calm   -999 mph 93% 0.00 in
04:11 39.2 °F 37.3 °F 23.44 in Calm   -999 mph 93% 0.00 in
04:26 39 °F 37.1 °F 23.44 in Calm   -999 mph 93% 0.00 in
04:41 39 °F 37.1 °F 23.44 in Calm   -999 mph 93% 0.00 in
04:56 38.5 °F 36.9 °F 23.44 in Calm   -999 mph 94% 0.00 in
05:12 38.5 °F 36.9 °F 23.44 in Calm   -999 mph 94% 0.00 in
05:27 38.3 °F 36.7 °F 23.44 in Calm   -999 mph 94% 0.00 in
05:42 38.3 °F 36.7 °F 23.45 in Calm   -999 mph 94% 0.00 in
05:57 38.1 °F 36.8 °F 23.45 in Calm   -999 mph 95% 0.00 in
06:12 38.3 °F 37 °F 23.45 in Calm   -999 mph 95% 0.00 in
06:28 38.3 °F 37.3 °F 23.45 in Calm   -999 mph 96% 0.00 in
06:43 38.5 °F 37.5 °F 23.45 in Calm   -999 mph 96% 0.00 in
06:58 39.9 °F 38.9 °F 23.46 in Calm   -999 mph 96% 0.00 in
07:13 40.1 °F 39.1 °F 23.46 in Calm   -999 mph 96% 0.00 in
07:28 41 °F 39.9 °F 23.46 in Calm   -999 mph 96% 0.00 in
07:44 42.4 °F 41.3 °F 23.46 in Calm   -999 mph 96% 0.00 in
07:59 43.9 °F 42.8 °F 23.46 in Calm   -999 mph 96% 0.00 in
08:14 45.7 °F 44.1 °F 23.46 in Calm   -999 mph 94% 0.00 in
08:29 47.5 °F 44.7 °F 23.47 in Calm   -999 mph 90% 0.00 in
08:44 50 °F 45 °F 23.47 in Calm   -999 mph 83% 0.00 in
09:00 52.2 °F 44.2 °F 23.47 in Calm   -999 mph 74% 0.00 in
09:15 56.3 °F 39.9 °F 23.47 in East 1.1 mph -999 mph 54% 0.00 in
09:30 58.5 °F 41.4 °F 23.48 in NNW 5.3 mph -999 mph 53% 0.00 in
09:45 59.9 °F 41.7 °F 23.48 in NNW 4.7 mph -999 mph 51% 0.00 in
10:00 60.6 °F 41.9 °F 23.48 in NW 6.8 mph -999 mph 50% 0.00 in
10:16 62.4 °F 41.3 °F 23.48 in WNW 1.1 mph -999 mph 46% 0.00 in
10:32 63.3 °F 39.8 °F 23.48 in South 2.7 mph -999 mph 42% 0.00 in
10:47 61.9 °F 39.7 °F 23.48 in NW 4.7 mph -999 mph 44% 0.00 in
11:02 61.7 °F 39 °F 23.48 in NW 3.7 mph -999 mph 43% 0.00 in
11:17 64.2 °F 39.4 °F 23.49 in NW 2.7 mph -999 mph 40% 0.00 in
11:33 64.8 °F 39.9 °F 23.49 in WSW 2.7 mph -999 mph 40% 0.00 in
11:48 65.8 °F 39.5 °F 23.49 in ENE 2.7 mph -999 mph 38% 0.00 in
12:03 70.2 °F 41.3 °F 23.49 in WNW 4.7 mph -999 mph 35% 0.00 in
12:18 69.8 °F 40.9 °F 23.49 in NNE 1.1 mph -999 mph 35% 0.00 in
12:34 69.4 °F 41.3 °F 23.49 in Calm   -999 mph 36% 0.00 in
12:49 69.6 °F 40 °F 23.49 in East 1.7 mph -999 mph 34% 0.00 in
13:04 69.8 °F 41.6 °F 23.49 in NW 4.7 mph -999 mph 36% 0.00 in
13:19 70.2 °F 38.1 °F 23.49 in NNE 2.7 mph -999 mph 31% 0.00 in
13:35 67.5 °F 38.9 °F 23.48 in WNW 2.2 mph -999 mph 35% 0.00 in
13:50 68.9 °F 40.1 °F 23.49 in ESE 2.7 mph -999 mph 35% 0.00 in
14:05 67.6 °F 40.4 °F 23.48 in Calm   -999 mph 37% 0.00 in
14:21 68.2 °F 41.6 °F 23.48 in NNE 3.2 mph -999 mph 38% 0.00 in
14:36 67.6 °F 41.1 °F 23.48 in Calm   -999 mph 38% 0.00 in
14:51 67.6 °F 41.8 °F 23.48 in Calm   -999 mph 39% 0.00 in
15:06 65.8 °F 42.7 °F 23.48 in NW 3.7 mph -999 mph 43% 0.00 in
15:22 65.3 °F 42.2 °F 23.48 in NW 3.7 mph -999 mph 43% 0.00 in
15:37 64.9 °F 43.6 °F 23.48 in NNW 2.2 mph -999 mph 46% 0.00 in
15:52 64.4 °F 43.2 °F 23.48 in NW 2.2 mph -999 mph 46% 0.00 in
16:08 63.7 °F 43.6 °F 23.47 in NW 2.7 mph -999 mph 48% 0.00 in
16:23 63.5 °F 44 °F 23.47 in WNW 1.7 mph -999 mph 49% 0.00 in
16:38 62.6 °F 43.7 °F 23.47 in Calm   -999 mph 50% 0.00 in
16:53 65.1 °F 43.8 °F 23.47 in WNW 2.7 mph -999 mph 46% 0.00 in
17:08 64.4 °F 43.7 °F 23.47 in Calm   -999 mph 47% 0.00 in
17:24 64.6 °F 43.9 °F 23.47 in Calm   -999 mph 47% 0.00 in
17:39 63.5 °F 44 °F 23.47 in WNW 1.1 mph -999 mph 49% 0.00 in
17:54 68.9 °F 43.6 °F 23.47 in Calm   -999 mph 40% 0.00 in
18:10 68.5 °F 45.1 °F 23.46 in Calm   -999 mph 43% 0.00 in
18:25 71.2 °F 45.6 °F 23.46 in Calm   -999 mph 40% 0.00 in
18:40 69.3 °F 43.9 °F 23.47 in West 1.1 mph -999 mph 40% 0.00 in
18:55 70.2 °F 46 °F 23.47 in Calm   -999 mph 42% 0.00 in
19:10 67.1 °F 45.1 °F 23.47 in Calm   -999 mph 45% 0.00 in
19:26 64.6 °F 43.9 °F 23.47 in Calm   -999 mph 47% 0.00 in
19:41 58.1 °F 43.8 °F 23.48 in Calm   -999 mph 59% 0.00 in
19:56 56.3 °F 43.9 °F 23.48 in Calm   -999 mph 63% 0.00 in
20:11 55 °F 43.5 °F 23.48 in Calm   -999 mph 65% 0.00 in
20:27 54.3 °F 42.8 °F 23.48 in Calm   -999 mph 65% 0.00 in
20:42 53.2 °F 42.1 °F 23.48 in Calm   -999 mph 66% 0.00 in
20:57 52.5 °F 42.2 °F 23.48 in Calm   -999 mph 68% 0.00 in
21:12 51.8 °F 42.3 °F 23.49 in Calm   -999 mph 70% 0.00 in
21:27 51.4 °F 42.3 °F 23.49 in Calm   -999 mph 71% 0.00 in
21:43 51.3 °F 43.3 °F 23.50 in Calm   -999 mph 74% 0.00 in
21:58 51.4 °F 44.1 °F 23.50 in Calm   -999 mph 76% 0.00 in
22:13 53.6 °F 46.6 °F 23.51 in NW 3.7 mph -999 mph 77% 0.00 in
22:28 54.9 °F 47.1 °F 23.51 in North 4.2 mph -999 mph 75% 0.00 in
22:43 54.9 °F 47.1 °F 23.51 in North 2.7 mph -999 mph 75% 0.00 in
22:59 54.7 °F 47.3 °F 23.51 in NW 2.7 mph -999 mph 76% 0.00 in
23:14 54.5 °F 47.1 °F 23.51 in Calm   -999 mph 76% 0.00 in
23:29 52.5 °F 45.5 °F 23.51 in Calm   -999 mph 77% 0.00 in
23:44 52 °F 45.4 °F 23.51 in Calm   -999 mph 78% 0.00 in
23:59 50.9 °F 45 °F 23.51 in ESE 2.7 mph -999 mph 80% 0.00 in
Big Bear CA Weather